Monk Fryston, United Kingdom
Current Conditions -  °F | °C
As of 2:50 PM on Friday 28 Nov 2014 (Local Time) from EGNM Reporting Station
Moderate Fog Moderate Fog  
Wind Chill: 44°   Ceiling: 100
Heat Index: 48°   Visibility: 0.5mi
Dew Point: 48°   Wind: 9mph
Humidity: 100%   Direction: 70°ENE
Pressure: 29.74"   Gusts: NA
Location:  53.76°N, 1.24°W
Report Text: EGNM 281450Z 07008KT 040V100 0800 R14/P1500 FG OVC001 09/09 Q1007
Loading
Personal Weather Stations






























Interactive Weather Map New forecast layout! Learn more

10-Day Weather Forecast

Advertisements
Track Severe Weather on mobile